Gwarzo, Nigeria
Current Conditions -  °F | °C
As of 6:00 PM on Wednesday 17 Dec 2014 (Local Time) from DNKN Reporting Station
Clear Clear  
Wind Chill: 82°   Ceiling: Unl
Heat Index: 82°   Visibility: 5mi
Dew Point: 39°   Wind: 10mph
Humidity: 21%   Direction: 40°NE
Pressure: 29.91"   Gusts: NA
Location:  11.91°N, 7.94°E
Report Text: DNKN 171700Z 04009KT 8000 NIL NSC 28/04 Q1013 NOSIG
Loading
Personal Weather Stations






























Interactive Weather Map New forecast layout! Learn more

10-Day Weather Forecast

Advertisements
Track Severe Weather on mobile